Time;durP1;ratioP1;P1;durP2;ratioP2;P2;SDS_P1;SDS_P2;PMS_P1;PMS_P2;Temp;Humidity;BMP_temperature;BMP_pressure;BME280_temperature;BME280_humidity;BME280_pressure;Samples;Min_cycle;Max_cycle;Signal;HPM_P1;HPM_P2
2022/02/19 00:01:34;;;;;;;1.20;0.88;;;;;;;;;;5098276;28;20048;-72
2022/02/19 00:04:03;;;;;;;0.98;0.98;;;;;;;;;;5095374;28;20108;-72
2022/02/19 00:06:33;;;;;;;1.02;0.80;;;;;;;;;;5097301;28;20479;-72
2022/02/19 00:09:00;;;;;;;1.33;0.95;;;;;;;;;;5097907;28;20723;-73
2022/02/19 00:11:28;;;;;;;0.70;0.70;;;;;;;;;;5093031;28;20133;-72
2022/02/19 00:13:55;;;;;;;0.90;0.90;;;;;;;;;;5097162;28;20079;-72
2022/02/19 00:16:22;;;;;;;0.90;0.90;;;;;;;;;;5093987;28;20178;-71
2022/02/19 00:18:50;;;;;;;1.08;1.02;;;;;;;;;;5095794;28;20654;-72
2022/02/19 00:21:16;;;;;;;1.10;1.00;;;;;;;;;;5100488;28;20126;-73
2022/02/19 00:23:43;;;;;;;0.80;0.80;;;;;;;;;;5100048;28;20113;-72
2022/02/19 00:26:22;;;;;;;1.95;0.80;;;;;;;;;;5098409;28;20048;-71
2022/02/19 00:28:48;;;;;;;1.17;0.70;;;;;;;;;;5096289;28;20104;-72
2022/02/19 00:31:15;;;;;;;0.90;0.90;;;;;;;;;;5103167;28;20119;-71
2022/02/19 00:33:42;;;;;;;1.10;1.00;;;;;;;;;;5100153;28;20130;-71
2022/02/19 00:36:09;;;;;;;0.77;0.77;;;;;;;;;;5100849;28;20087;-71
2022/02/19 00:38:36;;;;;;;1.75;1.00;;;;;;;;;;5098074;28;20143;-72
2022/02/19 00:41:03;;;;;;;1.00;1.00;;;;;;;;;;5098741;28;20530;-72
2022/02/19 00:43:29;;;;;;;1.13;1.02;;;;;;;;;;5099830;28;20098;-71
2022/02/19 00:45:56;;;;;;;1.25;1.10;;;;;;;;;;5100723;28;20043;-71
2022/02/19 00:48:23;;;;;;;;;;;;;;;;;;5103181;28;20083;-72
2022/02/19 00:51:10;;;;;;;1.38;1.27;;;;;;;;;;5091692;28;19920;-71
2022/02/19 00:53:38;;;;;;;2.35;1.70;;;;;;;;;;5090595;28;20134;-72
2022/02/19 00:56:04;;;;;;;2.00;1.80;;;;;;;;;;5090679;28;20558;-70
2022/02/19 00:58:32;;;;;;;1.80;1.70;;;;;;;;;;5097624;28;20087;-71
2022/02/19 01:01:05;;;;;;;1.95;1.52;;;;;;;;;;5102188;27;20074;-73
2022/02/19 01:03:31;;;;;;;2.13;1.92;;;;;;;;;;5091484;28;20143;-71
2022/02/19 01:05:59;;;;;;;1.50;1.40;;;;;;;;;;5090840;28;20123;-71
2022/02/19 01:08:26;;;;;;;1.65;1.55;;;;;;;;;;5089510;28;20089;-71
2022/02/19 01:10:53;;;;;;;1.75;1.50;;;;;;;;;;5090530;28;20688;-71
2022/02/19 01:13:19;;;;;;;1.58;1.48;;;;;;;;;;5091483;28;20138;-71
2022/02/19 01:15:46;;;;;;;1.45;1.35;;;;;;;;;;5099641;28;20138;-71
2022/02/19 01:18:12;;;;;;;0.90;0.90;;;;;;;;;;5099371;28;20632;-72
2022/02/19 01:20:41;;;;;;;1.30;1.20;;;;;;;;;;5099783;28;20502;-72
2022/02/19 01:23:15;;;;;;;0.90;0.90;;;;;;;;;;5092364;28;20142;-72
2022/02/19 01:25:41;;;;;;;1.05;1.00;;;;;;;;;;5089500;27;20519;-71
2022/02/19 01:28:08;;;;;;;0.90;0.85;;;;;;;;;;5090896;28;20554;-71
2022/02/19 01:30:35;;;;;;;1.63;1.07;;;;;;;;;;5090919;27;20684;-71
2022/02/19 01:33:02;;;;;;;1.08;0.70;;;;;;;;;;5089577;28;20050;-72
2022/02/19 01:35:28;;;;;;;0.80;0.80;;;;;;;;;;5089922;27;20047;-71
2022/02/19 01:37:56;;;;;;;0.70;0.70;;;;;;;;;;5089762;28;20075;-71
2022/02/19 01:40:23;;;;;;;0.60;0.60;;;;;;;;;;5092197;28;20047;-70
2022/02/19 01:42:49;;;;;;;0.70;0.70;;;;;;;;;;5090871;28;20127;-70
2022/02/19 01:45:17;;;;;;;0.50;0.50;;;;;;;;;;5091396;28;20044;-71
2022/02/19 01:47:44;;;;;;;1.00;0.90;;;;;;;;;;5091170;28;20515;-70
2022/02/19 01:50:10;;;;;;;0.70;0.70;;;;;;;;;;5092750;28;20132;-70
2022/02/19 01:52:43;;;;;;;3.13;1.00;;;;;;;;;;5099686;28;20478;-70
2022/02/19 01:55:10;;;;;;;2.10;0.65;;;;;;;;;;5092186;28;20079;-71
2022/02/19 01:57:37;;;;;;;;;;;;;;;;;;5091790;28;20155;-71
2022/02/19 02:00:05;;;;;;;0.82;0.82;;;;;;;;;;5096992;28;19977;-71
2022/02/19 02:02:32;;;;;;;1.27;1.17;;;;;;;;;;5071815;27;20051;-71
2022/02/19 02:04:58;;;;;;;0.90;0.90;;;;;;;;;;5096000;28;20126;-70
2022/02/19 02:07:32;;;;;;;1.20;1.00;;;;;;;;;;5094674;28;20105;-71
2022/02/19 02:09:59;;;;;;;3.15;1.10;;;;;;;;;;5070299;28;20137;-70
2022/02/19 02:12:26;;;;;;;1.85;1.48;;;;;;;;;;5091929;28;20139;-71
2022/02/19 02:14:57;;;;;;;1.30;1.20;;;;;;;;;;5091172;28;20580;-71
2022/02/19 02:17:23;;;;;;;1.25;1.13;;;;;;;;;;5088058;28;20135;-72
2022/02/19 02:19:50;;;;;;;2.35;1.20;;;;;;;;;;5091211;28;20460;-71
2022/02/19 02:22:18;;;;;;;1.30;1.20;;;;;;;;;;5088620;28;20122;-71
2022/02/19 02:24:46;;;;;;;1.45;1.35;;;;;;;;;;5089252;28;20631;-70
2022/02/19 02:27:13;;;;;;;4.07;1.70;;;;;;;;;;5089156;27;20043;-71
2022/02/19 02:29:43;;;;;;;1.55;1.45;;;;;;;;;;5088076;28;20150;-71
2022/02/19 02:32:09;;;;;;;;;;;;;;;;;;5092283;27;20090;-70
2022/02/19 02:34:54;;;;;;;1.80;1.58;;;;;;;;;;5089702;28;20016;-71
2022/02/19 02:37:21;;;;;;;2.47;1.70;;;;;;;;;;5088717;28;20135;-71
2022/02/19 02:39:48;;;;;;;1.33;1.23;;;;;;;;;;5091929;28;20058;-71
2022/02/19 02:42:15;;;;;;;2.85;1.60;;;;;;;;;;5091443;28;20052;-71
2022/02/19 02:44:42;;;;;;;1.60;1.50;;;;;;;;;;5089965;28;20130;-71
2022/02/19 02:47:10;;;;;;;1.75;1.48;;;;;;;;;;5091106;28;20051;-71
2022/02/19 02:49:37;;;;;;;3.92;1.60;;;;;;;;;;5089318;28;20147;-71
2022/02/19 02:52:04;;;;;;;;;;;;;;;;;;5072650;28;20142;-71
2022/02/19 02:54:31;;;;;;;1.33;1.02;;;;;;;;;;5091417;28;19927;-71
2022/02/19 02:56:57;;;;;;;1.73;1.30;;;;;;;;;;5096602;28;20081;-71
2022/02/19 02:59:30;;;;;;;1.20;0.90;;;;;;;;;;5096641;28;20388;-70
2022/02/19 03:01:56;;;;;;;2.97;1.10;;;;;;;;;;5100663;28;20043;-71
2022/02/19 03:04:23;;;;;;;1.30;1.10;;;;;;;;;;5088641;28;20135;-71
2022/02/19 03:06:56;;;;;;;1.00;0.90;;;;;;;;;;5088310;28;20570;-71
2022/02/19 03:09:23;;;;;;;0.70;0.70;;;;;;;;;;5088622;27;20163;-72
2022/02/19 03:11:49;;;;;;;1.67;0.90;;;;;;;;;;5071021;28;20177;-70
2022/02/19 03:14:16;;;;;;;4.50;1.00;;;;;;;;;;5087324;28;20135;-71
2022/02/19 03:16:42;;;;;;;0.75;0.70;;;;;;;;;;5070961;28;20297;-71
2022/02/19 03:19:09;;;;;;;1.10;0.75;;;;;;;;;;5088608;28;20392;-71
2022/02/19 03:21:35;;;;;;;1.70;0.50;;;;;;;;;;5088280;28;20122;-71
2022/02/19 03:24:02;;;;;;;1.45;0.65;;;;;;;;;;5089287;28;20122;-71
2022/02/19 03:26:28;;;;;;;0.50;0.50;;;;;;;;;;5071472;28;20181;-71
2022/02/19 03:28:55;;;;;;;2.20;0.50;;;;;;;;;;5087162;28;20130;-71
2022/02/19 03:31:22;;;;;;;1.05;0.60;;;;;;;;;;5090114;28;20079;-71
2022/02/19 03:33:49;;;;;;;0.70;0.50;;;;;;;;;;5087516;28;20047;-71
2022/02/19 03:36:22;;;;;;;2.17;0.70;;;;;;;;;;5089831;28;20075;-71
2022/02/19 03:38:51;;;;;;;4.05;0.80;;;;;;;;;;5087119;27;20139;-71
2022/02/19 03:41:18;;;;;;;1.58;0.70;;;;;;;;;;5087478;28;20142;-71
2022/02/19 03:43:44;;;;;;;1.77;0.80;;;;;;;;;;5088652;28;20044;-71
2022/02/19 03:46:11;;;;;;;1.25;0.73;;;;;;;;;;5086951;28;20055;-71
2022/02/19 03:48:39;;;;;;;0.50;0.50;;;;;;;;;;5090435;28;20582;-71
2022/02/19 03:51:06;;;;;;;2.50;0.90;;;;;;;;;;5098331;28;20126;-71
2022/02/19 03:53:33;;;;;;;1.13;0.90;;;;;;;;;;5092399;28;20051;-71
2022/02/19 03:56:01;;;;;;;2.70;0.90;;;;;;;;;;5097376;28;20047;-71
2022/02/19 03:58:27;;;;;;;1.65;0.68;;;;;;;;;;5098800;28;20134;-71
2022/02/19 04:00:54;;;;;;;1.48;0.70;;;;;;;;;;5088935;28;20483;-71
2022/02/19 04:03:27;;;;;;;4.72;0.90;;;;;;;;;;5088557;28;20056;-70
2022/02/19 04:05:55;;;;;;;1.48;0.85;;;;;;;;;;5089175;28;20043;-71
2022/02/19 04:08:22;;;;;;;2.53;1.00;;;;;;;;;;5086804;28;20074;-71
2022/02/19 04:10:49;;;;;;;;;;;;;;;;;;5088069;28;20048;-71
2022/02/19 04:13:15;;;;;;;0.88;0.45;;;;;;;;;;5087949;28;20020;-71
2022/02/19 04:15:42;;;;;;;3.22;0.80;;;;;;;;;;5095396;28;20079;-71
2022/02/19 04:18:09;;;;;;;1.27;1.00;;;;;;;;;;5096842;28;20119;-71
2022/02/19 04:20:35;;;;;;;4.47;1.70;;;;;;;;;;5092125;28;20148;-71
2022/02/19 04:23:02;;;;;;;7.75;2.42;;;;;;;;;;5087401;28;20119;-71
2022/02/19 04:25:29;;;;;;;6.57;2.83;;;;;;;;;;5091342;28;20052;-72
2022/02/19 04:28:00;;;;;;;11.93;2.70;;;;;;;;;;5097580;28;20439;-71
2022/02/19 04:30:27;;;;;;;14.63;3.75;;;;;;;;;;5092899;28;20477;-72
2022/02/19 04:33:00;;;;;;;7.90;3.28;;;;;;;;;;5091681;28;20147;-72
2022/02/19 04:35:27;;;;;;;9.00;2.70;;;;;;;;;;5087276;28;20178;-72
2022/02/19 04:37:54;;;;;;;9.55;2.53;;;;;;;;;;5077106;27;20399;-71
2022/02/19 04:40:21;;;;;;;3.85;1.70;;;;;;;;;;5092038;28;20596;-71
2022/02/19 04:42:51;;;;;;;3.88;1.70;;;;;;;;;;5091132;28;20514;-72
2022/02/19 04:45:20;;;;;;;7.65;1.85;;;;;;;;;;5095586;28;20523;-72
2022/02/19 04:47:47;;;;;;;3.92;1.92;;;;;;;;;;5095584;28;20131;-71
2022/02/19 04:50:13;;;;;;;4.05;1.60;;;;;;;;;;5091234;28;20071;-71
2022/02/19 04:52:43;;;;;;;4.40;1.88;;;;;;;;;;5087157;28;20114;-71
2022/02/19 04:55:17;;;;;;;4.15;1.60;;;;;;;;;;5091010;28;20499;-72
2022/02/19 04:57:44;;;;;;;4.18;1.65;;;;;;;;;;5095244;28;20079;-72
2022/02/19 05:00:11;;;;;;;;;;;;;;;;;;5098741;28;20094;-72
2022/02/19 05:02:38;;;;;;;4.80;1.73;;;;;;;;;;5092254;28;20010;-72
2022/02/19 05:05:05;;;;;;;2.78;1.52;;;;;;;;;;5090759;28;20139;-72
2022/02/19 05:07:32;;;;;;;2.00;0.97;;;;;;;;;;5090699;28;20145;-71
2022/02/19 05:10:03;;;;;;;2.28;1.27;;;;;;;;;;5094118;28;20131;-71
2022/02/19 05:12:29;;;;;;;4.47;1.10;;;;;;;;;;5100830;28;20043;-72
2022/02/19 05:14:56;;;;;;;1.17;1.00;;;;;;;;;;5098094;28;20136;-72
2022/02/19 05:17:23;;;;;;;2.50;1.25;;;;;;;;;;5092711;28;20478;-71
2022/02/19 05:19:50;;;;;;;1.87;1.10;;;;;;;;;;5090014;28;20127;-71
2022/02/19 05:22:16;;;;;;;5.07;1.10;;;;;;;;;;5094072;28;20135;-72
2022/02/19 05:24:50;;;;;;;3.65;1.17;;;;;;;;;;5098189;28;20135;-72
2022/02/19 05:27:17;;;;;;;3.80;0.93;;;;;;;;;;5100226;28;20093;-72
2022/02/19 05:29:44;;;;;;;1.58;0.77;;;;;;;;;;5095833;28;20122;-72
2022/02/19 05:32:17;;;;;;;0.85;0.73;;;;;;;;;;5098043;28;20495;-72
2022/02/19 05:34:43;;;;;;;0.98;0.80;;;;;;;;;;5091231;28;20052;-72
2022/02/19 05:37:11;;;;;;;2.75;1.20;;;;;;;;;;5091488;28;20048;-72
2022/02/19 05:39:50;;;;;;;2.10;0.93;;;;;;;;;;5090025;28;20151;-73
2022/02/19 05:42:24;;;;;;;1.50;0.60;;;;;;;;;;5089400;28;20135;-71
2022/02/19 05:44:54;;;;;;;1.75;0.80;;;;;;;;;;5092365;28;20142;-71
2022/02/19 05:47:21;;;;;;;2.83;1.00;;;;;;;;;;5091417;28;20151;-72
2022/02/19 05:49:47;;;;;;;0.77;0.70;;;;;;;;;;5070867;28;20112;-72
2022/02/19 05:52:14;;;;;;;;;;;;;;;;;;5089990;28;20721;-72
2022/02/19 05:54:41;;;;;;;1.08;0.98;;;;;;;;;;5090700;28;20387;-72
2022/02/19 05:57:08;;;;;;;2.15;0.80;;;;;;;;;;5088641;28;20119;-71
2022/02/19 05:59:35;;;;;;;1.52;0.90;;;;;;;;;;5089646;28;20044;-72
2022/02/19 06:02:02;;;;;;;1.00;0.85;;;;;;;;;;5092171;28;20495;-72
2022/02/19 06:04:29;;;;;;;0.70;0.68;;;;;;;;;;5090132;28;20147;-72
2022/02/19 06:07:02;;;;;;;2.78;1.10;;;;;;;;;;5090495;27;20558;-72
2022/02/19 06:09:29;;;;;;;1.35;1.10;;;;;;;;;;5075258;28;20139;-72
2022/02/19 06:11:55;;;;;;;1.45;0.90;;;;;;;;;;5090376;28;20060;-72
2022/02/19 06:14:29;;;;;;;1.27;0.70;;;;;;;;;;5087209;28;20559;-72
2022/02/19 06:16:55;;;;;;;3.45;1.13;;;;;;;;;;5088632;28;20138;-72
2022/02/19 06:19:23;;;;;;;1.50;0.90;;;;;;;;;;5088212;28;20051;-73
2022/02/19 06:21:49;;;;;;;6.32;1.65;;;;;;;;;;5090255;28;20123;-72
2022/02/19 06:24:16;;;;;;;3.08;1.67;;;;;;;;;;5089260;28;20142;-72
2022/02/19 06:26:42;;;;;;;2.95;1.60;;;;;;;;;;5089368;28;20072;-73
2022/02/19 06:29:09;;;;;;;4.43;1.80;;;;;;;;;;5088757;28;20132;-72
2022/02/19 06:31:35;;;;;;;3.72;1.55;;;;;;;;;;5093558;28;20172;-72
2022/02/19 06:34:02;;;;;;;2.00;1.15;;;;;;;;;;5100873;28;20150;-71
2022/02/19 06:36:29;;;;;;;2.08;1.45;;;;;;;;;;5100607;28;20069;-72
2022/02/19 06:38:55;;;;;;;2.92;1.45;;;;;;;;;;5097225;28;20102;-72
2022/02/19 06:41:22;;;;;;;2.85;1.38;;;;;;;;;;5075584;28;20152;-72
2022/02/19 06:43:48;;;;;;;3.50;1.40;;;;;;;;;;5089032;28;20122;-72
2022/02/19 06:46:15;;;;;;;1.75;1.10;;;;;;;;;;5089626;28;20780;-72
2022/02/19 06:48:41;;;;;;;3.72;1.10;;;;;;;;;;5088216;28;20040;-72
2022/02/19 06:51:09;;;;;;;1.75;1.13;;;;;;;;;;5089390;28;20055;-72
2022/02/19 06:53:37;;;;;;;2.67;1.83;;;;;;;;;;5093685;28;20123;-73
2022/02/19 06:56:03;;;;;;;2.28;1.02;;;;;;;;;;5093992;28;20066;-71
2022/02/19 06:58:31;;;;;;;1.67;1.02;;;;;;;;;;5095854;28;20120;-72
2022/02/19 07:00:57;;;;;;;1.98;0.90;;;;;;;;;;5096608;28;20124;-72
2022/02/19 07:03:24;;;;;;;1.23;0.83;;;;;;;;;;5088737;28;20471;-72
2022/02/19 07:05:52;;;;;;;1.83;1.10;;;;;;;;;;5088329;28;20139;-72
2022/02/19 07:08:21;;;;;;;4.15;1.10;;;;;;;;;;5088150;28;20071;-71
2022/02/19 07:10:48;;;;;;;1.63;1.00;;;;;;;;;;5088366;28;20185;-72
2022/02/19 07:13:21;;;;;;;3.40;1.35;;;;;;;;;;5088717;28;20098;-72
2022/02/19 07:15:48;;;;;;;5.97;1.25;;;;;;;;;;5085891;28;20127;-72
2022/02/19 07:18:14;;;;;;;4.47;1.88;;;;;;;;;;5087721;28;20047;-72
2022/02/19 07:20:47;;;;;;;3.75;1.30;;;;;;;;;;5089424;28;20135;-72
2022/02/19 07:23:14;;;;;;;3.57;0.93;;;;;;;;;;5096431;28;20565;-72
2022/02/19 07:25:40;;;;;;;2.88;1.00;;;;;;;;;;5094460;28;20134;-72
2022/02/19 07:28:07;;;;;;;6.03;1.20;;;;;;;;;;5089971;28;20494;-72
2022/02/19 07:30:38;;;;;;;1.17;1.07;;;;;;;;;;5087103;28;20051;-73
2022/02/19 07:33:08;;;;;;;1.65;1.20;;;;;;;;;;5086214;27;20665;-72
2022/02/19 07:35:41;;;;;;;5.40;1.40;;;;;;;;;;5085930;28;20134;-73
2022/02/19 07:38:14;;;;;;;4.40;1.13;;;;;;;;;;5085559;27;20619;-72
2022/02/19 07:40:55;;;;;;;2.05;1.15;;;;;;;;;;5088172;28;20137;-72
2022/02/19 07:43:21;;;;;;;4.70;1.33;;;;;;;;;;5088870;28;20134;-72
2022/02/19 07:45:48;;;;;;;1.83;1.10;;;;;;;;;;5089438;28;20050;-73
2022/02/19 07:48:15;;;;;;;2.00;1.05;;;;;;;;;;5066595;28;20131;-73
2022/02/19 07:58:57;;;;;;;5.32;1.92;;;;;;;;;;5098064;28;20142;-73
2022/02/19 08:01:23;;;;;;;3.80;1.42;;;;;;;;;;5097130;28;20083;-72
2022/02/19 08:03:50;;;;;;;2.78;1.20;;;;;;;;;;5095186;28;20079;-73
2022/02/19 08:06:16;;;;;;;5.68;0.85;;;;;;;;;;5097910;27;20497;-73
2022/02/19 08:08:43;;;;;;;3.85;1.20;;;;;;;;;;5097717;27;20151;-72
2022/02/19 08:11:09;;;;;;;3.30;1.30;;;;;;;;;;5084091;28;20614;-72
2022/02/19 08:13:42;;;;;;;1.65;1.20;;;;;;;;;;5091356;28;20135;-72
2022/02/19 08:16:09;;;;;;;1.90;1.08;;;;;;;;;;5085327;28;20406;-72
2022/02/19 08:18:35;;;;;;;5.10;1.40;;;;;;;;;;5087336;28;20554;-72
2022/02/19 08:21:02;;;;;;;3.03;1.40;;;;;;;;;;5088515;28;20131;-72
2022/02/19 08:23:29;;;;;;;2.58;1.10;;;;;;;;;;5087285;28;20540;-72
2022/02/19 08:25:56;;;;;;;1.20;1.10;;;;;;;;;;5086176;28;20551;-73
2022/02/19 08:28:29;;;;;;;1.83;1.27;;;;;;;;;;5088468;28;20419;-73
2022/02/19 08:30:55;;;;;;;4.72;1.42;;;;;;;;;;5086988;28;20052;-73
2022/02/19 08:33:22;;;;;;;4.93;1.52;;;;;;;;;;5085237;28;20215;-73
2022/02/19 08:35:55;;;;;;;4.07;1.55;;;;;;;;;;5088525;28;20070;-73
2022/02/19 08:38:22;;;;;;;3.95;1.70;;;;;;;;;;5086567;28;20142;-73
2022/02/19 08:40:49;;;;;;;5.40;1.92;;;;;;;;;;5089062;28;20165;-73
2022/02/19 08:43:16;;;;;;;4.53;1.60;;;;;;;;;;5089659;28;20384;-73
2022/02/19 08:45:42;;;;;;;4.57;1.40;;;;;;;;;;5093882;28;20048;-73
2022/02/19 08:48:11;;;;;;;6.38;1.48;;;;;;;;;;5090039;28;20138;-73
2022/02/19 08:50:39;;;;;;;5.32;1.77;;;;;;;;;;5091509;28;20043;-73
2022/02/19 08:53:08;;;;;;;4.50;1.52;;;;;;;;;;5091397;28;20072;-73
2022/02/19 08:55:37;;;;;;;3.25;1.60;;;;;;;;;;5093668;27;20135;-73
2022/02/19 08:58:04;;;;;;;2.75;1.90;;;;;;;;;;5093093;28;20139;-73
2022/02/19 09:00:31;;;;;;;7.70;2.77;;;;;;;;;;5091565;28;22417;-73
2022/02/19 09:02:58;;;;;;;6.93;2.50;;;;;;;;;;5094734;28;20296;-73
2022/02/19 09:05:26;;;;;;;3.60;2.03;;;;;;;;;;5100161;28;20072;-73
2022/02/19 09:07:53;;;;;;;3.83;2.30;;;;;;;;;;5099652;28;20092;-74
2022/02/19 09:10:21;;;;;;;3.13;2.10;;;;;;;;;;5101133;28;20130;-73
2022/02/19 09:12:49;;;;;;;6.93;2.53;;;;;;;;;;5103104;27;20075;-73
2022/02/19 09:15:20;;;;;;;5.15;2.40;;;;;;;;;;5103291;27;20063;-74
2022/02/19 09:17:47;;;;;;;3.08;2.08;;;;;;;;;;5099319;28;20105;-73
2022/02/19 09:20:19;;;;;;;3.45;2.40;;;;;;;;;;5100726;28;20159;-73
2022/02/19 09:22:46;;;;;;;6.38;2.83;;;;;;;;;;5102931;28;20075;-73
2022/02/19 09:25:19;;;;;;;5.35;3.00;;;;;;;;;;5099737;28;20090;-73
2022/02/19 09:27:46;;;;;;;4.20;2.67;;;;;;;;;;5098999;28;20082;-73
2022/02/19 09:30:12;;;;;;;5.97;2.75;;;;;;;;;;5098790;28;20420;-73
2022/02/19 09:32:39;;;;;;;6.70;2.78;;;;;;;;;;5099889;28;20117;-73
2022/02/19 09:35:06;;;;;;;5.93;2.22;;;;;;;;;;5101622;28;20151;-73
2022/02/19 09:37:33;;;;;;;6.53;2.70;;;;;;;;;;5100853;28;20143;-73
2022/02/19 09:40:03;;;;;;;5.53;2.08;;;;;;;;;;5098457;28;20576;-73
2022/02/19 09:42:29;;;;;;;4.82;2.53;;;;;;;;;;5099188;28;20052;-74
2022/02/19 09:44:57;;;;;;;5.47;2.10;;;;;;;;;;5101131;28;20048;-73
2022/02/19 09:47:26;;;;;;;4.07;2.30;;;;;;;;;;5095953;28;20060;-74
2022/02/19 09:49:53;;;;;;;4.13;2.13;;;;;;;;;;5101036;28;20143;-74
2022/02/19 09:52:19;;;;;;;5.10;2.20;;;;;;;;;;5098835;28;20039;-73
2022/02/19 09:54:49;;;;;;;3.00;1.73;;;;;;;;;;5097360;28;20067;-73
2022/02/19 09:57:16;;;;;;;;;;;;;;;;;;5078331;28;20143;-73
2022/02/19 09:59:43;;;;;;;6.40;2.00;;;;;;;;;;5097695;28;19959;-74
2022/02/19 10:02:16;;;;;;;3.08;1.92;;;;;;;;;;5097288;28;20479;-73
2022/02/19 10:04:44;;;;;;;4.38;2.20;;;;;;;;;;5089804;28;20079;-74
2022/02/19 10:07:13;;;;;;;4.15;2.47;;;;;;;;;;5092077;28;20067;-73
2022/02/19 10:09:47;;;;;;;3.15;2.22;;;;;;;;;;5089981;28;20112;-73
2022/02/19 10:12:15;;;;;;;5.82;2.17;;;;;;;;;;5089521;28;20461;-73
2022/02/19 10:14:42;;;;;;;2.95;2.00;;;;;;;;;;5093684;28;20048;-73
2022/02/19 10:17:13;;;;;;;4.40;2.00;;;;;;;;;;5090767;28;20050;-73
2022/02/19 10:20:02;;;;;;;3.83;1.92;;;;;;;;;;5091854;28;20160;-73
2022/02/19 10:22:30;;;;;;;2.00;1.52;;;;;;;;;;5078519;28;20614;-73
2022/02/19 10:25:07;;;;;;;5.72;2.10;;;;;;;;;;5090144;28;20487;-73
2022/02/19 10:27:40;;;;;;;2.92;1.80;;;;;;;;;;5090961;28;20170;-74
2022/02/19 10:30:08;;;;;;;3.17;1.92;;;;;;;;;;5088735;28;20051;-73
2022/02/19 10:32:34;;;;;;;;;;;;;;;;;;5096310;28;20101;-74
2022/02/19 10:35:03;;;;;;;2.28;1.80;;;;;;;;;;5096338;28;20400;-73
2022/02/19 10:37:29;;;;;;;3.63;1.65;;;;;;;;;;5093733;28;20756;-73
2022/02/19 10:39:58;;;;;;;2.72;1.73;;;;;;;;;;5087348;28;20080;-73
2022/02/19 10:42:24;;;;;;;;;;;;;;;;;;5090062;28;20105;-73
2022/02/19 10:44:54;;;;;;;4.50;1.40;;;;;;;;;;5088062;28;19928;-73
2022/02/19 10:47:23;;;;;;;4.32;1.80;;;;;;;;;;5095511;28;20384;-73
2022/02/19 10:50:02;;;;;;;3.88;1.90;;;;;;;;;;5098972;28;20044;-73
2022/02/19 10:52:35;;;;;;;2.78;1.85;;;;;;;;;;5099841;27;20051;-73
2022/02/19 10:55:06;;;;;;;4.38;1.85;;;;;;;;;;5093280;28;20789;-73
2022/02/19 10:57:39;;;;;;;2.85;1.60;;;;;;;;;;5088865;28;20437;-73
2022/02/19 11:00:13;;;;;;;2.95;1.50;;;;;;;;;;5091090;28;20135;-74
2022/02/19 11:02:40;;;;;;;3.15;1.52;;;;;;;;;;5089107;28;20052;-73
2022/02/19 11:05:07;;;;;;;3.15;1.52;;;;;;;;;;5088526;27;20048;-74
2022/02/19 11:07:34;;;;;;;2.72;1.30;;;;;;;;;;5088054;28;20578;-74
2022/02/19 11:10:05;;;;;;;4.15;1.40;;;;;;;;;;5068397;28;20143;-73
2022/02/19 11:12:31;;;;;;;1.95;1.30;;;;;;;;;;5088012;28;20071;-73
2022/02/19 11:14:58;;;;;;;1.50;1.30;;;;;;;;;;5088837;28;20075;-73
2022/02/19 11:17:25;;;;;;;;;;;;;;;;;;5089312;28;20146;-74
2022/02/19 11:19:52;;;;;;;2.05;0.98;;;;;;;;;;5089812;28;20045;-73
2022/02/19 11:22:20;;;;;;;4.28;1.60;;;;;;;;;;5096150;28;20075;-74
2022/02/19 11:24:51;;;;;;;3.47;1.67;;;;;;;;;;5099698;28;20526;-74
2022/02/19 11:27:18;;;;;;;3.08;1.75;;;;;;;;;;5091873;28;20068;-74
2022/02/19 11:29:45;;;;;;;2.03;1.40;;;;;;;;;;5094057;28;20135;-74
2022/02/19 11:32:18;;;;;;;3.38;1.60;;;;;;;;;;5101315;28;20130;-74
2022/02/19 11:34:48;;;;;;;5.88;1.38;;;;;;;;;;5098625;28;20139;-74
2022/02/19 11:37:17;;;;;;;2.30;1.40;;;;;;;;;;5096215;28;20151;-73
2022/02/19 11:40:10;;;;;;;1.92;1.17;;;;;;;;;;5095107;28;20175;-73
2022/02/19 11:42:49;;;;;;;5.60;1.63;;;;;;;;;;5094563;28;20052;-73
2022/02/19 11:45:30;;;;;;;1.98;1.23;;;;;;;;;;5088093;28;22234;-74
2022/02/19 11:48:02;;;;;;;2.92;1.33;;;;;;;;;;5088220;28;20121;-76
2022/02/19 11:50:30;;;;;;;1.67;1.25;;;;;;;;;;5086008;28;20146;-74
2022/02/19 11:53:12;;;;;;;4.32;1.45;;;;;;;;;;5088870;28;20085;-74
2022/02/19 11:55:45;;;;;;;3.50;1.30;;;;;;;;;;5096889;28;20090;-74
2022/02/19 11:58:24;;;;;;;6.78;1.23;;;;;;;;;;5099338;28;20051;-74
2022/02/19 12:00:55;;;;;;;7.75;1.52;;;;;;;;;;5088574;28;20394;-73
2022/02/19 12:03:30;;;;;;;3.47;1.52;;;;;;;;;;5089946;28;20317;-73
2022/02/19 12:06:06;;;;;;;10.68;1.60;;;;;;;;;;5087664;28;20054;-73
2022/02/19 12:08:49;;;;;;;5.88;1.25;;;;;;;;;;5087092;28;20163;-74
2022/02/19 12:11:24;;;;;;;6.22;1.45;;;;;;;;;;5090348;28;20524;-74
2022/02/19 12:13:57;;;;;;;6.53;1.55;;;;;;;;;;5091009;28;20075;-73
2022/02/19 12:16:30;;;;;;;3.58;1.55;;;;;;;;;;5088416;28;20070;-74
2022/02/19 12:19:02;;;;;;;8.00;1.70;;;;;;;;;;5088264;28;20058;-74
2022/02/19 12:21:32;;;;;;;5.65;1.45;;;;;;;;;;5096440;28;20048;-74
2022/02/19 12:24:13;;;;;;;3.47;1.75;;;;;;;;;;5094385;28;20572;-74
2022/02/19 12:26:59;;;;;;;7.13;1.80;;;;;;;;;;5092450;28;20134;-73
2022/02/19 12:29:31;;;;;;;6.40;2.55;;;;;;;;;;5094594;28;20079;-74
2022/02/19 12:32:00;;;;;;;4.10;1.95;;;;;;;;;;5091083;28;20050;-74
2022/02/19 12:34:28;;;;;;;9.68;2.17;;;;;;;;;;5092438;28;20481;-74
2022/02/19 12:36:55;;;;;;;4.00;1.67;;;;;;;;;;5091228;28;20500;-74
2022/02/19 12:39:21;;;;;;;3.03;1.23;;;;;;;;;;5098144;28;20138;-74
2022/02/19 12:42:02;;;;;;;5.93;1.50;;;;;;;;;;5090199;28;20392;-74
2022/02/19 12:44:29;;;;;;;4.45;1.30;;;;;;;;;;5083507;28;20381;-74
2022/02/19 12:46:56;;;;;;;3.90;1.60;;;;;;;;;;5086721;28;20051;-74
2022/02/19 12:49:26;;;;;;;5.63;1.70;;;;;;;;;;5086754;28;20081;-74
2022/02/19 12:51:57;;;;;;;6.95;2.00;;;;;;;;;;5086936;28;20356;-74
2022/02/19 12:54:31;;;;;;;7.80;1.50;;;;;;;;;;5086843;28;20523;-74
2022/02/19 12:56:58;;;;;;;6.65;1.65;;;;;;;;;;5088989;28;20047;-75
2022/02/19 12:59:31;;;;;;;6.45;1.33;;;;;;;;;;5095910;28;20067;-75
2022/02/19 13:01:59;;;;;;;5.95;1.80;;;;;;;;;;5094829;28;20129;-75
2022/02/19 13:04:25;;;;;;;;;;;;;;;;;;5087479;28;20637;-75
2022/02/19 13:06:52;;;;;;;5.85;1.55;;;;;;;;;;5085062;28;19924;-75
2022/02/19 13:09:20;;;;;;;6.60;1.60;;;;;;;;;;5087304;28;20606;-75
2022/02/19 13:11:51;;;;;;;4.30;1.38;;;;;;;;;;5091096;28;20051;-75
2022/02/19 13:14:17;;;;;;;7.20;1.55;;;;;;;;;;5095367;28;20134;-76
2022/02/19 13:16:56;;;;;;;3.03;1.30;;;;;;;;;;5096758;28;20138;-75
2022/02/19 13:19:22;;;;;;;7.97;1.83;;;;;;;;;;5093751;28;20302;-75
2022/02/19 13:22:00;;;;;;;4.40;1.48;;;;;;;;;;5096124;28;20131;-74
2022/02/19 13:24:28;;;;;;;4.80;1.60;;;;;;;;;;5092469;28;20048;-76
2022/02/19 13:27:07;;;;;;;6.90;1.40;;;;;;;;;;5099918;27;20388;-76
2022/02/19 13:29:33;;;;;;;7.68;1.63;;;;;;;;;;5100181;28;20101;-76
2022/02/19 13:32:01;;;;;;;4.97;1.05;;;;;;;;;;5100345;28;20513;-76
2022/02/19 13:34:28;;;;;;;5.88;1.30;;;;;;;;;;5100563;27;20059;-76
2022/02/19 13:36:54;;;;;;;4.70;1.30;;;;;;;;;;5097326;28;20058;-77
2022/02/19 13:39:24;;;;;;;3.25;1.13;;;;;;;;;;5096359;28;20806;-76
2022/02/19 13:41:51;;;;;;;4.88;1.30;;;;;;;;;;5100818;27;20135;-76
2022/02/19 13:44:18;;;;;;;4.70;1.75;;;;;;;;;;5099729;28;20114;-77
2022/02/19 13:46:45;;;;;;;7.10;1.33;;;;;;;;;;5093647;28;20059;-76
2022/02/19 13:49:12;;;;;;;11.57;2.05;;;;;;;;;;5093187;28;20054;-76
2022/02/19 13:51:39;;;;;;;;;;;;;;;;;;5095534;28;20548;-76
2022/02/19 13:54:15;;;;;;;6.03;1.52;;;;;;;;;;5100105;28;20102;-76
2022/02/19 13:56:42;;;;;;;5.47;1.00;;;;;;;;;;5096544;28;20074;-76
2022/02/19 13:59:28;;;;;;;7.25;1.30;;;;;;;;;;5097293;28;20500;-76
2022/02/19 14:01:56;;;;;;;3.07;1.33;;;;;;;;;;5077527;27;20142;-76
2022/02/19 14:04:30;;;;;;;10.27;1.52;;;;;;;;;;5098835;28;20281;-76
2022/02/19 14:07:10;;;;;;;6.03;2.20;;;;;;;;;;5098605;27;20126;-75
2022/02/19 14:09:38;;;;;;;5.43;1.17;;;;;;;;;;5101248;27;20127;-76
2022/02/19 14:12:05;;;;;;;10.13;1.50;;;;;;;;;;5093853;28;20989;-76
2022/02/19 14:14:34;;;;;;;6.35;1.45;;;;;;;;;;5089725;28;20162;-74
2022/02/19 14:17:02;;;;;;;6.32;1.52;;;;;;;;;;5086653;28;20044;-76
2022/02/19 14:19:29;;;;;;;4.88;1.50;;;;;;;;;;5089363;28;20048;-75
2022/02/19 14:22:01;;;;;;;4.28;1.35;;;;;;;;;;5089578;28;20048;-75
2022/02/19 14:24:28;;;;;;;6.20;1.80;;;;;;;;;;5096146;27;20067;-75
2022/02/19 14:27:08;;;;;;;6.37;2.30;;;;;;;;;;5096931;28;20083;-75
2022/02/19 14:29:35;;;;;;;11.45;3.03;;;;;;;;;;5097875;28;20044;-75
2022/02/19 14:32:02;;;;;;;7.53;2.75;;;;;;;;;;5097398;28;20566;-75
2022/02/19 14:34:29;;;;;;;;;;;;;;;;;;5096165;28;20127;-75
2022/02/19 14:36:56;;;;;;;9.15;2.60;;;;;;;;;;5086418;28;19928;-75
2022/02/19 14:39:22;;;;;;;9.55;2.25;;;;;;;;;;5087896;28;20157;-76
2022/02/19 14:41:49;;;;;;;5.45;1.45;;;;;;;;;;5088082;28;20343;-75
2022/02/19 14:44:15;;;;;;;5.10;1.85;;;;;;;;;;5087985;28;20126;-75
2022/02/19 14:46:42;;;;;;;8.17;1.93;;;;;;;;;;5088599;28;20071;-75
2022/02/19 14:49:12;;;;;;;7.85;1.67;;;;;;;;;;5089631;27;20127;-75
2022/02/19 14:51:39;;;;;;;9.13;1.60;;;;;;;;;;5088039;28;20135;-74
2022/02/19 14:54:06;;;;;;;4.17;1.47;;;;;;;;;;5088163;28;20113;-75
2022/02/19 14:56:33;;;;;;;8.25;1.60;;;;;;;;;;5088526;28;20298;-75
2022/02/19 14:59:01;;;;;;;10.40;1.70;;;;;;;;;;5088521;28;20048;-75
2022/02/19 15:01:30;;;;;;;6.68;1.67;;;;;;;;;;5089211;28;21195;-74
2022/02/19 15:04:00;;;;;;;8.48;1.67;;;;;;;;;;5092320;27;20130;-74
2022/02/19 15:06:28;;;;;;;13.95;1.52;;;;;;;;;;5089506;28;20166;-74